Boonsboro, MD

7:15 PM EDT on July 03, 2015 (GMT -0400)
Boonsboro Weather Station | | Change Station
CLOSE
Current Station
Personal Weather Station
Location: Boonsboro, MD
Elevation: 520 ft
Nearby Weather Stations

Elev 520 ft 39.51 °N, 77.65 °W | Updated 7 minutes ago

Mostly Cloudy
Mostly Cloudy
75.9 °F
Feels Like 78 °F
N
1.6
Wind Variable Wind from ESE

Today
High -- | Low -- °F
--% Chance of Precip.
Yesterday
High -- | Low -- °F
Precip. -- in
5:47 AM 8:41 PM
Waning Gibbous, 95% visible
Pressure 29.96 in
Visibility 8.0 miles
Clouds Overcast 7000 ft
Heat Index 78 °F
Dew Point 63 °F
Humidity 64%
Rainfall 0.00 in
Snow Depth Not available.
UV 0 out of 12
Pollen .60 out of 12
Air Quality Not available.
Flu Activity Not available.
METAR KHGR 032253Z 15006KT 8SM OVC070 25/16 A2994 RMK AO2 SLP143 T02500161

More Conditions Fewer Conditions

Pressure 29.96 in
Visibility 8.0 miles
Clouds Overcast 7000 ft
Heat Index 78 °F
Dew Point 63 °F
Humidity 64%
Rainfall 0.00 in
Snow Depth Not available.
UV 0 out of 12
Pollen .60 out of 12
Air Quality Not available.
Flu Activity Not available.
METAR KHGR 032253Z 15006KT 8SM OVC070 25/16 A2994 RMK AO2 SLP143 T02500161

More Conditions Fewer Conditions

10-Day Weather Forecast

×

Almanac

Astronomy

Jul. 03, 2015 Rise Set
Actual Time
Civil Twilight
Nautical Twilight
Astronomical Twilight
Moon
Length of Visible Light
Length of Day
Tomorrow will be .
, % of the Moon is Illuminated

Today's Extremes

State Highs State Lows

Community

WunderPhotos

Upload Photos

1,834,819 photos uploaded!

WunderBlogs® & News

Nearby

Air Quality

  Air Quality AQ Index Pollutant
Not available.

Snow Depth

Station Depth Elevation

Earthquake Activity

City Distance Mag. Time & Date
Minimum magnitude displayed is 2.5.

Coastal Water Temperatures

Place Temperature

Stations

Nearby Weather Stations

Station Location Temp. Windchill Dew Point Humidity Wind Precip. Elev Updated Type